createdAt,value
2023-05-01T00:00:10.000Z,0
2023-05-01T00:01:11.000Z,0
2023-05-01T00:02:11.000Z,0
2023-05-01T00:03:12.000Z,0
2023-05-01T00:04:12.000Z,0
2023-05-01T00:05:13.000Z,0
2023-05-01T00:06:14.000Z,0
2023-05-01T00:07:14.000Z,0
2023-05-01T00:08:15.000Z,0
2023-05-01T00:09:16.000Z,0
2023-05-01T00:10:16.000Z,0
2023-05-01T00:11:17.000Z,0
2023-05-01T00:12:18.000Z,0
2023-05-01T00:13:18.000Z,0
2023-05-01T00:14:19.000Z,0
2023-05-01T00:15:19.000Z,0
2023-05-01T00:16:20.000Z,0
2023-05-01T00:17:21.000Z,0
2023-05-01T00:18:21.000Z,0
2023-05-01T00:19:22.000Z,0
2023-05-01T00:20:22.000Z,0
2023-05-01T00:21:23.000Z,0
2023-05-01T00:22:24.000Z,0
2023-05-01T00:23:24.000Z,0
2023-05-01T00:24:25.000Z,0
2023-05-01T00:25:26.000Z,0
2023-05-01T00:26:26.000Z,0
2023-05-01T00:27:27.000Z,0
2023-05-01T00:28:27.000Z,0
2023-05-01T00:29:28.000Z,0
2023-05-01T00:30:29.000Z,0
2023-05-01T00:31:29.000Z,0
2023-05-01T00:32:30.000Z,0
2023-05-01T00:33:31.000Z,0
2023-05-01T00:34:31.000Z,0
2023-05-01T00:35:32.000Z,0
2023-05-01T00:36:32.000Z,0
2023-05-01T00:37:33.000Z,0
2023-05-01T00:38:34.000Z,0
2023-05-01T00:39:34.000Z,0
2023-05-01T00:40:35.000Z,0
2023-05-01T00:41:36.000Z,0
2023-05-01T00:42:36.000Z,0
2023-05-01T00:43:37.000Z,0
2023-05-01T00:44:38.000Z,0
2023-05-01T00:45:38.000Z,0
2023-05-01T00:46:39.000Z,0
2023-05-01T00:47:39.000Z,0
2023-05-01T00:48:40.000Z,0
2023-05-01T00:49:41.000Z,0
2023-05-01T00:50:41.000Z,0
2023-05-01T00:51:42.000Z,0
2023-05-01T00:52:43.000Z,0
2023-05-01T00:53:43.000Z,0
2023-05-01T00:54:44.000Z,0
2023-05-01T00:55:44.000Z,0
2023-05-01T00:56:45.000Z,0
2023-05-01T00:57:46.000Z,0
2023-05-01T00:58:46.000Z,0
2023-05-01T00:59:47.000Z,0
2023-05-01T01:00:48.000Z,0
2023-05-01T01:01:48.000Z,0
2023-05-01T01:02:49.000Z,0
2023-05-01T01:03:49.000Z,0
2023-05-01T01:04:50.000Z,0
2023-05-01T01:05:51.000Z,0
2023-05-01T01:06:51.000Z,0
2023-05-01T01:07:52.000Z,0
2023-05-01T01:08:53.000Z,0
2023-05-01T01:09:53.000Z,0
2023-05-01T01:10:54.000Z,0
2023-05-01T01:11:55.000Z,0
2023-05-01T01:12:55.000Z,0
2023-05-01T01:13:56.000Z,0
2023-05-01T01:14:56.000Z,0
2023-05-01T01:15:57.000Z,0
2023-05-01T01:16:58.000Z,0
2023-05-01T01:17:58.000Z,0
2023-05-01T01:18:59.000Z,0
2023-05-01T01:20:00.000Z,0
2023-05-01T01:21:00.000Z,0
2023-05-01T01:22:01.000Z,0
2023-05-01T01:23:02.000Z,0
2023-05-01T01:24:02.000Z,0
2023-05-01T01:25:03.000Z,0
2023-05-01T01:26:03.000Z,0
2023-05-01T01:27:04.000Z,0
2023-05-01T01:28:05.000Z,0
2023-05-01T01:29:05.000Z,0
2023-05-01T01:30:06.000Z,0
2023-05-01T01:31:07.000Z,0
2023-05-01T01:32:07.000Z,0
2023-05-01T01:33:08.000Z,0
2023-05-01T01:34:08.000Z,0
2023-05-01T01:35:09.000Z,0
2023-05-01T01:36:10.000Z,0
2023-05-01T01:37:10.000Z,0
2023-05-01T01:38:11.000Z,0
2023-05-01T01:39:12.000Z,0
2023-05-01T01:40:12.000Z,0
2023-05-01T01:41:13.000Z,0
2023-05-01T01:42:14.000Z,0
2023-05-01T01:43:14.000Z,0
2023-05-01T01:44:15.000Z,0
2023-05-01T01:45:15.000Z,0
2023-05-01T01:46:16.000Z,0
2023-05-01T01:47:17.000Z,0
2023-05-01T01:48:17.000Z,0
2023-05-01T01:49:18.000Z,0
2023-05-01T01:50:19.000Z,0
2023-05-01T01:51:19.000Z,0
2023-05-01T01:52:20.000Z,0
2023-05-01T01:53:20.000Z,0
2023-05-01T01:54:21.000Z,0
2023-05-01T01:55:22.000Z,0
2023-05-01T01:56:22.000Z,0
2023-05-01T01:57:23.000Z,0
2023-05-01T01:58:24.000Z,0
2023-05-01T01:59:24.000Z,0
2023-05-01T02:00:25.000Z,0
2023-05-01T02:01:25.000Z,0
2023-05-01T02:02:26.000Z,0
2023-05-01T02:03:27.000Z,0
2023-05-01T02:04:27.000Z,0
2023-05-01T02:05:28.000Z,0
2023-05-01T02:06:29.000Z,0
2023-05-01T02:07:29.000Z,0
2023-05-01T02:08:30.000Z,0
2023-05-01T02:09:30.000Z,0
2023-05-01T02:10:31.000Z,0
2023-05-01T02:11:32.000Z,0
2023-05-01T02:12:32.000Z,0
2023-05-01T02:13:33.000Z,0
2023-05-01T02:14:34.000Z,0
2023-05-01T02:15:34.000Z,0
2023-05-01T02:16:35.000Z,0
2023-05-01T02:17:35.000Z,0
2023-05-01T02:18:36.000Z,0
2023-05-01T02:19:37.000Z,0
2023-05-01T02:20:37.000Z,0
2023-05-01T02:21:38.000Z,0
2023-05-01T02:22:39.000Z,0
2023-05-01T02:23:39.000Z,0
2023-05-01T02:24:40.000Z,0
2023-05-01T02:25:40.000Z,0
2023-05-01T02:26:41.000Z,0
2023-05-01T02:27:42.000Z,0
2023-05-01T02:28:43.000Z,0
2023-05-01T02:29:44.000Z,0
2023-05-01T02:30:45.000Z,0
2023-05-01T02:31:45.000Z,0
2023-05-01T02:32:46.000Z,0
2023-05-01T02:33:47.000Z,0
2023-05-01T02:34:47.000Z,0
2023-05-01T02:35:48.000Z,0
2023-05-01T02:36:49.000Z,0
2023-05-01T02:37:49.000Z,0
2023-05-01T02:38:50.000Z,0
2023-05-01T02:39:50.000Z,0
2023-05-01T02:40:51.000Z,0
2023-05-01T02:41:52.000Z,0
2023-05-01T02:42:52.000Z,0
2023-05-01T02:43:53.000Z,0
2023-05-01T02:44:54.000Z,0
2023-05-01T02:45:54.000Z,0
2023-05-01T02:46:55.000Z,0
2023-05-01T02:47:56.000Z,0
2023-05-01T02:48:56.000Z,0
2023-05-01T02:49:57.000Z,0
2023-05-01T02:50:57.000Z,0
2023-05-01T02:51:58.000Z,0
2023-05-01T02:52:59.000Z,1
2023-05-01T02:53:59.000Z,1
2023-05-01T02:55:00.000Z,0
2023-05-01T02:56:01.000Z,0
2023-05-01T02:57:01.000Z,1
2023-05-01T02:58:02.000Z,1
2023-05-01T02:59:02.000Z,0
2023-05-01T03:00:03.000Z,1
2023-05-01T03:01:04.000Z,1
2023-05-01T03:02:04.000Z,1
2023-05-01T03:03:05.000Z,1
2023-05-01T03:04:06.000Z,1
2023-05-01T03:05:06.000Z,1
2023-05-01T03:06:07.000Z,2
2023-05-01T03:07:07.000Z,2
2023-05-01T03:08:08.000Z,3
2023-05-01T03:09:09.000Z,3
2023-05-01T03:10:09.000Z,4
2023-05-01T03:11:10.000Z,4
2023-05-01T03:12:11.000Z,5
2023-05-01T03:13:11.000Z,7
2023-05-01T03:14:12.000Z,7
2023-05-01T03:15:12.000Z,8
2023-05-01T03:16:13.000Z,10
2023-05-01T03:17:14.000Z,11
2023-05-01T03:18:14.000Z,14
2023-05-01T03:19:15.000Z,16
2023-05-01T03:20:16.000Z,19
2023-05-01T03:21:16.000Z,22
2023-05-01T03:22:17.000Z,26
2023-05-01T03:23:17.000Z,29
2023-05-01T03:24:18.000Z,35
2023-05-01T03:25:19.000Z,41
2023-05-01T03:26:19.000Z,48
2023-05-01T03:27:20.000Z,56
2023-05-01T03:28:21.000Z,65
2023-05-01T03:29:21.000Z,75
2023-05-01T03:30:22.000Z,87
2023-05-01T03:31:22.000Z,100
2023-05-01T03:32:23.000Z,115
2023-05-01T03:33:24.000Z,132
2023-05-01T03:34:24.000Z,152
2023-05-01T03:35:25.000Z,175
2023-05-01T03:36:26.000Z,200
2023-05-01T03:37:26.000Z,226
2023-05-01T03:38:27.000Z,255
2023-05-01T03:39:27.000Z,286
2023-05-01T03:40:28.000Z,316
2023-05-01T03:41:29.000Z,346
2023-05-01T03:42:29.000Z,375
2023-05-01T03:43:30.000Z,408
2023-05-01T03:44:31.000Z,444
2023-05-01T03:45:31.000Z,479
2023-05-01T03:46:32.000Z,510
2023-05-01T03:47:32.000Z,541
2023-05-01T03:48:33.000Z,581
2023-05-01T03:49:34.000Z,630
2023-05-01T03:50:34.000Z,683
2023-05-01T03:51:35.000Z,733
2023-05-01T03:52:36.000Z,781
2023-05-01T03:53:36.000Z,831
2023-05-01T03:54:37.000Z,887
2023-05-01T03:55:37.000Z,943
2023-05-01T03:56:38.000Z,1003
2023-05-01T03:57:39.000Z,1065
2023-05-01T03:58:39.000Z,1130
2023-05-01T03:59:40.000Z,1197
2023-05-01T04:00:40.000Z,1260
2023-05-01T04:01:41.000Z,1323
2023-05-01T04:02:42.000Z,1385
2023-05-01T04:03:42.000Z,1444
2023-05-01T04:04:43.000Z,1502
2023-05-01T04:05:44.000Z,1558
2023-05-01T04:06:44.000Z,1626
2023-05-01T04:07:45.000Z,1715
2023-05-01T04:08:45.000Z,1812
2023-05-01T04:09:46.000Z,1903
2023-05-01T04:10:47.000Z,1982
2023-05-01T04:11:47.000Z,2058
2023-05-01T04:12:48.000Z,2166
2023-05-01T04:13:49.000Z,2343
2023-05-01T04:14:49.000Z,2508
2023-05-01T04:15:50.000Z,2534
2023-05-01T04:16:50.000Z,2543
2023-05-01T04:17:51.000Z,2556
2023-05-01T04:18:52.000Z,2596
2023-05-01T04:19:52.000Z,2685
2023-05-01T04:20:53.000Z,2784
2023-05-01T04:21:54.000Z,2893
2023-05-01T04:22:54.000Z,2999
2023-05-01T04:23:55.000Z,3077
2023-05-01T04:24:55.000Z,3112
2023-05-01T04:25:56.000Z,3201
2023-05-01T04:26:57.000Z,3335
2023-05-01T04:27:57.000Z,3471
2023-05-01T04:28:58.000Z,3592
2023-05-01T04:29:59.000Z,3710
2023-05-01T04:30:59.000Z,3825
2023-05-01T04:32:00.000Z,3920
2023-05-01T04:33:00.000Z,4027
2023-05-01T04:34:01.000Z,4151
2023-05-01T04:35:02.000Z,4305
2023-05-01T04:36:02.000Z,4476
2023-05-01T04:37:03.000Z,4633
2023-05-01T04:38:04.000Z,4756
2023-05-01T04:39:04.000Z,4856
2023-05-01T04:40:05.000Z,4949
2023-05-01T04:41:05.000Z,5046
2023-05-01T04:42:06.000Z,5160
2023-05-01T04:43:07.000Z,5271
2023-05-01T04:44:07.000Z,5393
2023-05-01T04:45:08.000Z,5497
2023-05-01T04:46:09.000Z,5566
2023-05-01T04:47:09.000Z,5592
2023-05-01T04:48:10.000Z,5601
2023-05-01T04:49:10.000Z,5620
2023-05-01T04:50:11.000Z,5654
2023-05-01T04:51:12.000Z,5687
2023-05-01T04:52:12.000Z,5719
2023-05-01T04:53:13.000Z,5773
2023-05-01T04:54:14.000Z,5849
2023-05-01T04:55:14.000Z,5941
2023-05-01T04:56:15.000Z,6034
2023-05-01T04:57:15.000Z,6124
2023-05-01T04:58:16.000Z,6222
2023-05-01T04:59:17.000Z,6292
2023-05-01T05:00:17.000Z,6386
2023-05-01T05:01:18.000Z,6492
2023-05-01T05:02:19.000Z,6577
2023-05-01T05:03:19.000Z,6654
2023-05-01T05:04:20.000Z,6736
2023-05-01T05:05:20.000Z,6810
2023-05-01T05:06:21.000Z,6860
2023-05-01T05:07:22.000Z,6943
2023-05-01T05:08:22.000Z,7105
2023-05-01T05:09:23.000Z,7304
2023-05-01T05:10:24.000Z,7541
2023-05-01T05:11:24.000Z,7780
2023-05-01T05:12:25.000Z,8003
2023-05-01T05:13:25.000Z,8224
2023-05-01T05:14:26.000Z,8423
2023-05-01T05:15:27.000Z,8537
2023-05-01T05:16:27.000Z,8602
2023-05-01T05:17:28.000Z,8633
2023-05-01T05:18:29.000Z,8744
2023-05-01T05:19:29.000Z,8906
2023-05-01T05:20:30.000Z,9101
2023-05-01T05:21:30.000Z,9246
2023-05-01T05:22:31.000Z,9345
2023-05-01T05:23:32.000Z,9423
2023-05-01T05:24:32.000Z,9547
2023-05-01T05:25:33.000Z,9679
2023-05-01T05:26:34.000Z,9845
2023-05-01T05:27:34.000Z,9991
2023-05-01T05:28:35.000Z,10171
2023-05-01T05:29:35.000Z,10337
2023-05-01T05:30:36.000Z,10517
2023-05-01T05:31:37.000Z,10703
2023-05-01T05:32:37.000Z,10879
2023-05-01T05:33:38.000Z,10978
2023-05-01T05:34:39.000Z,11133
2023-05-01T05:35:39.000Z,11264
2023-05-01T05:36:40.000Z,11359
2023-05-01T05:37:40.000Z,11493
2023-05-01T05:38:41.000Z,11574
2023-05-01T05:39:42.000Z,11631
2023-05-01T05:40:42.000Z,11691
2023-05-01T05:41:43.000Z,11784
2023-05-01T05:42:44.000Z,11870
2023-05-01T05:43:44.000Z,11923
2023-05-01T05:44:45.000Z,11925
2023-05-01T05:45:46.000Z,12061
2023-05-01T05:46:46.000Z,12172
2023-05-01T05:47:47.000Z,11856
2023-05-01T05:48:47.000Z,11658
2023-05-01T05:49:48.000Z,11509
2023-05-01T05:50:49.000Z,11308
2023-05-01T05:51:49.000Z,11239
2023-05-01T05:52:50.000Z,11242
2023-05-01T05:53:51.000Z,11266
2023-05-01T05:54:51.000Z,11242
2023-05-01T05:55:52.000Z,11241
2023-05-01T05:56:52.000Z,11233
2023-05-01T05:57:53.000Z,11190
2023-05-01T05:58:54.000Z,11179
2023-05-01T05:59:54.000Z,11180
2023-05-01T06:00:55.000Z,11179
2023-05-01T06:01:56.000Z,11185
2023-05-01T06:02:56.000Z,11186
2023-05-01T06:03:57.000Z,11164
2023-05-01T06:04:58.000Z,11193
2023-05-01T06:05:58.000Z,11125
2023-05-01T06:06:59.000Z,11076
2023-05-01T06:07:59.000Z,10985
2023-05-01T06:09:00.000Z,10859
2023-05-01T06:10:01.000Z,10771
2023-05-01T06:11:01.000Z,10611
2023-05-01T06:12:02.000Z,10600
2023-05-01T06:13:02.000Z,10377
2023-05-01T06:14:03.000Z,10179
2023-05-01T06:15:04.000Z,9999
2023-05-01T06:16:04.000Z,9867
2023-05-01T06:17:05.000Z,10016
2023-05-01T06:18:06.000Z,10259
2023-05-01T06:19:06.000Z,9598
2023-05-01T06:20:07.000Z,9308
2023-05-01T06:21:07.000Z,9190
2023-05-01T06:22:08.000Z,9137
2023-05-01T06:23:09.000Z,9095
2023-05-01T06:24:09.000Z,9185
2023-05-01T06:25:10.000Z,9620
2023-05-01T06:26:11.000Z,9755
2023-05-01T06:27:11.000Z,9390
2023-05-01T06:28:12.000Z,9867
2023-05-01T06:29:12.000Z,10614
2023-05-01T06:30:13.000Z,10220
2023-05-01T06:31:14.000Z,10715
2023-05-01T06:32:14.000Z,11718
2023-05-01T06:33:15.000Z,10608
2023-05-01T06:34:21.000Z,11666
2023-05-01T06:35:21.000Z,12168
2023-05-01T06:36:22.000Z,11826
2023-05-01T06:37:22.000Z,11355
2023-05-01T06:38:23.000Z,10273
2023-05-01T06:39:24.000Z,9332
2023-05-01T06:40:24.000Z,9361
2023-05-01T06:41:25.000Z,9602
2023-05-01T06:42:26.000Z,9571
2023-05-01T06:43:26.000Z,11746
2023-05-01T06:44:27.000Z,15054
2023-05-01T06:45:28.000Z,12128
2023-05-01T06:46:28.000Z,9443
2023-05-01T06:47:29.000Z,9530
2023-05-01T06:48:29.000Z,9654
2023-05-01T06:49:30.000Z,11333
2023-05-01T06:50:31.000Z,15203
2023-05-01T06:51:31.000Z,22592
2023-05-01T06:52:32.000Z,30392
2023-05-01T06:53:33.000Z,24768
2023-05-01T06:54:33.000Z,16808
2023-05-01T06:55:34.000Z,15690
2023-05-01T06:56:34.000Z,15520
2023-05-01T06:57:35.000Z,11883
2023-05-01T06:58:36.000Z,10451
2023-05-01T06:59:36.000Z,10889
2023-05-01T07:00:37.000Z,10773
2023-05-01T07:01:37.000Z,10153
2023-05-01T07:02:38.000Z,10124
2023-05-01T07:03:39.000Z,10907
2023-05-01T07:04:39.000Z,11894
2023-05-01T07:05:40.000Z,11482
2023-05-01T07:06:41.000Z,10691
2023-05-01T07:07:41.000Z,10767
2023-05-01T07:08:42.000Z,10943
2023-05-01T07:09:43.000Z,11265
2023-05-01T07:10:43.000Z,11783
2023-05-01T07:11:44.000Z,13068
2023-05-01T07:12:44.000Z,13706
2023-05-01T07:13:45.000Z,15474
2023-05-01T07:14:46.000Z,17504
2023-05-01T07:15:46.000Z,15321
2023-05-01T07:16:47.000Z,13745
2023-05-01T07:17:47.000Z,12561
2023-05-01T07:18:48.000Z,12274
2023-05-01T07:19:49.000Z,12311
2023-05-01T07:20:49.000Z,12332
2023-05-01T07:21:50.000Z,12609
2023-05-01T07:22:51.000Z,13141
2023-05-01T07:23:51.000Z,12962
2023-05-01T07:24:52.000Z,12838
2023-05-01T07:25:53.000Z,12771
2023-05-01T07:26:53.000Z,13614
2023-05-01T07:27:54.000Z,14563
2023-05-01T07:28:54.000Z,14595
2023-05-01T07:29:55.000Z,14977
2023-05-01T07:30:56.000Z,12826
2023-05-01T07:31:56.000Z,12473
2023-05-01T07:32:57.000Z,12451
2023-05-01T07:33:58.000Z,12356
2023-05-01T07:34:58.000Z,12317
2023-05-01T07:35:59.000Z,12340
2023-05-01T07:37:00.000Z,12375
2023-05-01T07:38:00.000Z,12422
2023-05-01T07:39:01.000Z,12635
2023-05-01T07:40:02.000Z,13068
2023-05-01T07:41:02.000Z,13351
2023-05-01T07:42:03.000Z,13417
2023-05-01T07:43:03.000Z,13179
2023-05-01T07:44:04.000Z,13318
2023-05-01T07:45:05.000Z,13661
2023-05-01T07:46:05.000Z,13485
2023-05-01T07:47:06.000Z,13159
2023-05-01T07:48:07.000Z,13143
2023-05-01T07:49:07.000Z,12721
2023-05-01T07:50:08.000Z,12744
2023-05-01T07:51:09.000Z,12991
2023-05-01T07:52:09.000Z,14463
2023-05-01T07:53:10.000Z,15714
2023-05-01T07:54:10.000Z,14423
2023-05-01T07:55:11.000Z,13904
2023-05-01T07:56:12.000Z,16401
2023-05-01T07:57:12.000Z,14580
2023-05-01T07:58:13.000Z,13711
2023-05-01T07:59:14.000Z,13983
2023-05-01T08:00:14.000Z,15538
2023-05-01T08:01:15.000Z,17488
2023-05-01T08:02:15.000Z,16803
2023-05-01T08:03:16.000Z,17072
2023-05-01T08:04:17.000Z,17408
2023-05-01T08:05:17.000Z,17528
2023-05-01T08:06:18.000Z,17632
2023-05-01T08:07:19.000Z,18232
2023-05-01T08:08:19.000Z,22184
2023-05-01T08:09:20.000Z,23000
2023-05-01T08:10:20.000Z,23568
2023-05-01T08:11:21.000Z,27240
2023-05-01T08:12:22.000Z,33200
2023-05-01T08:13:22.000Z,35400
2023-05-01T08:14:23.000Z,34600
2023-05-01T08:15:24.000Z,31656
2023-05-01T08:16:24.000Z,31552
2023-05-01T08:17:25.000Z,31816
2023-05-01T08:18:26.000Z,42664
2023-05-01T08:19:26.000Z,48824
2023-05-01T08:20:27.000Z,48640
2023-05-01T08:21:27.000Z,45968
2023-05-01T08:22:28.000Z,40480
2023-05-01T08:23:29.000Z,31304
2023-05-01T08:24:29.000Z,29688
2023-05-01T08:25:30.000Z,37696
2023-05-01T08:26:31.000Z,51064
2023-05-01T08:27:31.000Z,56568
2023-05-01T08:28:32.000Z,59008
2023-05-01T08:29:33.000Z,60464
2023-05-01T08:30:33.000Z,55168
2023-05-01T08:31:34.000Z,60008
2023-05-01T08:32:34.000Z,65535
2023-05-01T08:33:35.000Z,65535
2023-05-01T08:34:36.000Z,65535
2023-05-01T08:35:36.000Z,65535
2023-05-01T08:36:37.000Z,65535
2023-05-01T08:37:38.000Z,59624
2023-05-01T08:38:38.000Z,65535
2023-05-01T08:39:39.000Z,63536
2023-05-01T08:40:40.000Z,64328
2023-05-01T08:41:40.000Z,63120
2023-05-01T08:42:41.000Z,65424
2023-05-01T08:43:41.000Z,63000
2023-05-01T08:44:42.000Z,62120
2023-05-01T08:45:43.000Z,60736
2023-05-01T08:46:43.000Z,53760
2023-05-01T08:47:44.000Z,41440
2023-05-01T08:48:45.000Z,42592
2023-05-01T08:49:45.000Z,46576
2023-05-01T08:50:46.000Z,48824
2023-05-01T08:51:47.000Z,56280
2023-05-01T08:52:47.000Z,48504
2023-05-01T08:53:48.000Z,52312
2023-05-01T08:54:48.000Z,56784
2023-05-01T08:55:49.000Z,55064
2023-05-01T08:56:50.000Z,52448
2023-05-01T08:57:50.000Z,54552
2023-05-01T08:58:51.000Z,56840
2023-05-01T08:59:51.000Z,55536
2023-05-01T09:00:52.000Z,60104
2023-05-01T09:01:53.000Z,55016
2023-05-01T09:02:53.000Z,52608
2023-05-01T09:03:54.000Z,58256
2023-05-01T09:04:55.000Z,60168
2023-05-01T09:05:55.000Z,62888
2023-05-01T09:06:56.000Z,65535
2023-05-01T09:07:56.000Z,65535
2023-05-01T09:08:57.000Z,65535
2023-05-01T09:09:58.000Z,63472
2023-05-01T09:10:58.000Z,65535
2023-05-01T09:11:59.000Z,63888
2023-05-01T09:13:00.000Z,64440
2023-05-01T09:14:00.000Z,64616
2023-05-01T09:15:01.000Z,62208
2023-05-01T09:16:02.000Z,61040
2023-05-01T09:17:02.000Z,61600
2023-05-01T09:18:03.000Z,58256
2023-05-01T09:19:04.000Z,51560
2023-05-01T09:20:04.000Z,55400
2023-05-01T09:21:05.000Z,57504
2023-05-01T09:22:05.000Z,60072
2023-05-01T09:23:06.000Z,63336
2023-05-01T09:24:07.000Z,65535
2023-05-01T09:25:07.000Z,65535
2023-05-01T09:26:08.000Z,65535
2023-05-01T09:27:09.000Z,65535
2023-05-01T09:28:09.000Z,65535
2023-05-01T09:29:10.000Z,63992
2023-05-01T09:30:10.000Z,60352
2023-05-01T09:31:11.000Z,45848
2023-05-01T09:32:12.000Z,45048
2023-05-01T09:33:12.000Z,57928
2023-05-01T09:34:13.000Z,61512
2023-05-01T09:35:14.000Z,61824
2023-05-01T09:36:14.000Z,63464
2023-05-01T09:37:15.000Z,60728
2023-05-01T09:38:15.000Z,55568
2023-05-01T09:39:16.000Z,61160
2023-05-01T09:40:17.000Z,57544
2023-05-01T09:41:17.000Z,59072
2023-05-01T09:42:18.000Z,62616
2023-05-01T09:43:19.000Z,58128
2023-05-01T09:44:19.000Z,58368
2023-05-01T09:45:20.000Z,61736
2023-05-01T09:46:21.000Z,49000
2023-05-01T09:47:21.000Z,42464
2023-05-01T09:48:22.000Z,50192
2023-05-01T09:49:22.000Z,48232
2023-05-01T09:50:23.000Z,55520
2023-05-01T09:51:24.000Z,61968
2023-05-01T09:52:24.000Z,64592
2023-05-01T09:53:25.000Z,61880
2023-05-01T09:54:26.000Z,65535
2023-05-01T09:55:26.000Z,65535
2023-05-01T09:56:27.000Z,65535
2023-05-01T09:57:27.000Z,65408
2023-05-01T09:58:28.000Z,59120
2023-05-01T09:59:29.000Z,57496
2023-05-01T10:00:29.000Z,60280
2023-05-01T10:01:30.000Z,55496
2023-05-01T10:02:30.000Z,64128
2023-05-01T10:03:31.000Z,59808
2023-05-01T10:04:32.000Z,65168
2023-05-01T10:05:32.000Z,61360
2023-05-01T10:06:33.000Z,53464
2023-05-01T10:07:34.000Z,43312
2023-05-01T10:08:34.000Z,49520
2023-05-01T10:09:35.000Z,56688
2023-05-01T10:10:35.000Z,43488
2023-05-01T10:11:36.000Z,41680
2023-05-01T10:12:37.000Z,46272
2023-05-01T10:13:37.000Z,65535
2023-05-01T10:14:38.000Z,65535
2023-05-01T10:15:39.000Z,60296
2023-05-01T10:16:39.000Z,46968
2023-05-01T10:17:40.000Z,37712
2023-05-01T10:18:40.000Z,45896
2023-05-01T10:19:41.000Z,61616
2023-05-01T10:20:42.000Z,61800
2023-05-01T10:21:42.000Z,59824
2023-05-01T10:22:43.000Z,58936
2023-05-01T10:23:44.000Z,59624
2023-05-01T10:24:44.000Z,61920
2023-05-01T10:25:45.000Z,43960
2023-05-01T10:26:45.000Z,58856
2023-05-01T10:27:46.000Z,63816
2023-05-01T10:28:47.000Z,61264
2023-05-01T10:29:47.000Z,64688
2023-05-01T10:30:48.000Z,64080
2023-05-01T10:31:49.000Z,65535
2023-05-01T10:32:49.000Z,65535
2023-05-01T10:33:50.000Z,65535
2023-05-01T10:34:50.000Z,65535
2023-05-01T10:35:51.000Z,65535
2023-05-01T10:36:52.000Z,65535
2023-05-01T10:37:52.000Z,65535
2023-05-01T10:38:53.000Z,65535
2023-05-01T10:39:54.000Z,65535
2023-05-01T10:40:54.000Z,65535
2023-05-01T10:41:55.000Z,57584
2023-05-01T10:42:56.000Z,48952
2023-05-01T10:43:56.000Z,36256
2023-05-01T10:44:57.000Z,64632
2023-05-01T10:45:58.000Z,62144
2023-05-01T10:46:58.000Z,65535
2023-05-01T10:47:59.000Z,65535
2023-05-01T10:48:59.000Z,65535
2023-05-01T10:50:00.000Z,59632
2023-05-01T10:51:01.000Z,65535
2023-05-01T10:52:01.000Z,49856
2023-05-01T10:53:02.000Z,65535
2023-05-01T10:54:03.000Z,65535
2023-05-01T10:55:03.000Z,65535
2023-05-01T10:56:04.000Z,53840
2023-05-01T10:57:04.000Z,49056
2023-05-01T10:58:05.000Z,65535
2023-05-01T10:59:06.000Z,61776
2023-05-01T11:00:06.000Z,52080
2023-05-01T11:01:07.000Z,47216
2023-05-01T11:02:08.000Z,52528
2023-05-01T11:03:08.000Z,61008
2023-05-01T11:04:09.000Z,65535
2023-05-01T11:05:10.000Z,65535
2023-05-01T11:06:10.000Z,65535
2023-05-01T11:07:11.000Z,65535
2023-05-01T11:08:11.000Z,65535
2023-05-01T11:09:12.000Z,65535
2023-05-01T11:10:18.000Z,65535
2023-05-01T11:11:18.000Z,65535
2023-05-01T11:12:19.000Z,65535
2023-05-01T11:13:20.000Z,65535
2023-05-01T11:14:20.000Z,65535
2023-05-01T11:15:21.000Z,65535
2023-05-01T11:16:21.000Z,65535
2023-05-01T11:17:22.000Z,65535
2023-05-01T11:18:23.000Z,65535
2023-05-01T11:19:23.000Z,65535
2023-05-01T11:20:24.000Z,65535
2023-05-01T11:21:24.000Z,65535
2023-05-01T11:22:25.000Z,65535
2023-05-01T11:23:26.000Z,65535
2023-05-01T11:24:26.000Z,65535
2023-05-01T11:25:27.000Z,65535
2023-05-01T11:26:28.000Z,65535
2023-05-01T11:27:28.000Z,65535
2023-05-01T11:28:29.000Z,65535
2023-05-01T11:29:29.000Z,65535
2023-05-01T11:30:30.000Z,65535
2023-05-01T11:31:31.000Z,65535
2023-05-01T11:32:31.000Z,65535
2023-05-01T11:33:32.000Z,65535
2023-05-01T11:34:33.000Z,65535
2023-05-01T11:35:33.000Z,65535
2023-05-01T11:36:34.000Z,62744
2023-05-01T11:37:34.000Z,62112
2023-05-01T11:38:35.000Z,65535
2023-05-01T11:39:36.000Z,65535
2023-05-01T11:40:36.000Z,65535
2023-05-01T11:41:37.000Z,65535
2023-05-01T11:42:38.000Z,65535
2023-05-01T11:43:38.000Z,65535
2023-05-01T11:44:39.000Z,65535
2023-05-01T11:45:40.000Z,65535
2023-05-01T11:46:40.000Z,65535
2023-05-01T11:47:41.000Z,65535
2023-05-01T11:48:41.000Z,65535
2023-05-01T11:49:42.000Z,65535
2023-05-01T11:50:43.000Z,65535
2023-05-01T11:51:43.000Z,65535
2023-05-01T11:52:44.000Z,65535
2023-05-01T11:53:45.000Z,65535
2023-05-01T11:54:45.000Z,65535
2023-05-01T11:55:46.000Z,65535
2023-05-01T11:56:46.000Z,65535
2023-05-01T11:57:47.000Z,65535
2023-05-01T11:58:48.000Z,65535
2023-05-01T11:59:48.000Z,65535
2023-05-01T12:00:49.000Z,65535
2023-05-01T12:01:50.000Z,65535
2023-05-01T12:02:50.000Z,65535
2023-05-01T12:03:51.000Z,65535
2023-05-01T12:04:52.000Z,65535
2023-05-01T12:05:52.000Z,65535
2023-05-01T12:06:53.000Z,65535
2023-05-01T12:07:53.000Z,65535
2023-05-01T12:08:54.000Z,65535
2023-05-01T12:09:55.000Z,65535
2023-05-01T12:10:55.000Z,65535
2023-05-01T12:11:56.000Z,65535
2023-05-01T12:12:57.000Z,65535
2023-05-01T12:13:57.000Z,65535
2023-05-01T12:14:58.000Z,65535
2023-05-01T12:15:58.000Z,65535
2023-05-01T12:16:59.000Z,65535
2023-05-01T12:18:00.000Z,65535
2023-05-01T12:19:00.000Z,51216
2023-05-01T12:20:01.000Z,59176
2023-05-01T12:21:02.000Z,41528
2023-05-01T12:22:02.000Z,38600
2023-05-01T12:23:03.000Z,37376
2023-05-01T12:24:03.000Z,40032
2023-05-01T12:25:04.000Z,36992
2023-05-01T12:26:05.000Z,36840
2023-05-01T12:27:05.000Z,37264
2023-05-01T12:28:06.000Z,40752
2023-05-01T12:29:06.000Z,42744
2023-05-01T12:30:07.000Z,49984
2023-05-01T12:31:08.000Z,62800
2023-05-01T12:32:08.000Z,65328
2023-05-01T12:33:09.000Z,65535
2023-05-01T12:34:10.000Z,65535
2023-05-01T12:35:10.000Z,65535
2023-05-01T12:36:11.000Z,65535
2023-05-01T12:37:11.000Z,65535
2023-05-01T12:38:12.000Z,65535
2023-05-01T12:39:13.000Z,65535
2023-05-01T12:40:13.000Z,65535
2023-05-01T12:41:14.000Z,65535
2023-05-01T12:42:14.000Z,50944
2023-05-01T12:43:15.000Z,52984
2023-05-01T12:44:16.000Z,65535
2023-05-01T12:45:16.000Z,53320
2023-05-01T12:46:17.000Z,48112
2023-05-01T12:47:18.000Z,53584
2023-05-01T12:48:18.000Z,51360
2023-05-01T12:49:19.000Z,50016
2023-05-01T12:50:19.000Z,64808
2023-05-01T12:51:20.000Z,60920
2023-05-01T12:52:21.000Z,64672
2023-05-01T12:53:21.000Z,65535
2023-05-01T12:54:22.000Z,65535
2023-05-01T12:55:23.000Z,65535
2023-05-01T12:56:23.000Z,65535
2023-05-01T12:57:24.000Z,57824
2023-05-01T12:58:24.000Z,56912
2023-05-01T12:59:25.000Z,49184
2023-05-01T13:00:26.000Z,41912
2023-05-01T13:01:26.000Z,38744
2023-05-01T13:02:27.000Z,42032
2023-05-01T13:03:28.000Z,42928
2023-05-01T13:04:28.000Z,44528
2023-05-01T13:05:29.000Z,45208
2023-05-01T13:06:30.000Z,43360
2023-05-01T13:07:30.000Z,42184
2023-05-01T13:08:31.000Z,41496
2023-05-01T13:09:31.000Z,39368
2023-05-01T13:10:32.000Z,36680
2023-05-01T13:11:33.000Z,35664
2023-05-01T13:12:33.000Z,36240
2023-05-01T13:13:34.000Z,37256
2023-05-01T13:14:34.000Z,37248
2023-05-01T13:15:35.000Z,39632
2023-05-01T13:16:36.000Z,40648
2023-05-01T13:17:36.000Z,41016
2023-05-01T13:18:37.000Z,41288
2023-05-01T13:19:38.000Z,41232
2023-05-01T13:20:38.000Z,41048
2023-05-01T13:21:39.000Z,40864
2023-05-01T13:22:39.000Z,40336
2023-05-01T13:23:40.000Z,39904
2023-05-01T13:24:41.000Z,39728
2023-05-01T13:25:41.000Z,39600
2023-05-01T13:26:42.000Z,38904
2023-05-01T13:27:43.000Z,38928
2023-05-01T13:28:43.000Z,37216
2023-05-01T13:29:44.000Z,36632
2023-05-01T13:30:45.000Z,35560
2023-05-01T13:31:45.000Z,34736
2023-05-01T13:32:46.000Z,34616